Time;durP1;ratioP1;P1;durP2;ratioP2;P2;SDS_P1;SDS_P2;PMS_P1;PMS_P2;Temp;Humidity;BMP_temperature;BMP_pressure;BME280_temperature;BME280_humidity;BME280_pressure;Samples;Min_cycle;Max_cycle;Signal;HPM_P1;HPM_P2
2023/10/06 00:01:42;;;;;;;13.90;7.00;;;;;;;12.80;60.67;99446.80;107506;1259;72706;-40
2023/10/06 00:04:12;;;;;;;12.30;6.90;;;;;;;12.86;60.52;99440.95;107507;1254;60396;-41
2023/10/06 00:06:41;;;;;;;17.50;7.40;;;;;;;12.88;60.54;99440.20;107531;1254;60619;-40
2023/10/06 00:09:09;;;;;;;13.70;7.10;;;;;;;12.88;60.54;99441.66;107546;1253;73157;-40
2023/10/06 00:11:40;;;;;;;13.30;7.40;;;;;;;12.89;60.53;99443.16;107514;1254;66625;-40
2023/10/06 00:14:09;;;;;;;12.90;6.80;;;;;;;12.90;60.52;99443.17;107484;1254;71948;-40
2023/10/06 00:16:40;;;;;;;15.60;7.70;;;;;;;12.90;60.44;99449.77;107514;1254;61089;-40
2023/10/06 00:24:33;;;;;;;14.30;6.80;;;;;;;12.85;60.76;99448.95;107514;1254;67551;-40
2023/10/06 00:27:01;;;;;;;13.20;7.20;;;;;;;12.84;60.76;99446.67;107607;1254;71376;-40
2023/10/06 00:29:29;;;;;;;14.00;6.90;;;;;;;12.82;60.89;99448.70;107421;1256;60444;-40
2023/10/06 00:32:21;;;;;;;11.90;6.10;;;;;;;12.80;61.04;99446.56;107533;1254;60283;-40
2023/10/06 00:34:54;;;;;;;13.20;6.10;;;;;;;12.86;61.15;99451.30;107458;1253;73886;-40
2023/10/06 00:37:22;;;;;;;11.60;6.30;;;;;;;12.92;61.07;99454.94;107543;1254;66819;-40
2023/10/06 00:39:52;;;;;;;13.30;6.50;;;;;;;12.93;60.94;99448.02;107390;1254;72718;-40
2023/10/06 00:42:21;;;;;;;10.80;6.80;;;;;;;12.92;61.06;99447.64;107505;1254;60566;-40
2023/10/06 00:44:49;;;;;;;11.10;6.20;;;;;;;12.91;61.05;99449.66;107404;1253;60396;-40
2023/10/06 00:47:17;;;;;;;14.60;7.30;;;;;;;12.91;61.05;99450.19;107580;1254;73847;-40
2023/10/06 00:49:45;;;;;;;13.70;6.90;;;;;;;12.89;61.10;99451.41;107495;1254;68264;-40
2023/10/06 00:52:15;;;;;;;11.20;6.30;;;;;;;12.87;61.37;99454.96;107461;1253;72718;-41
2023/10/06 00:54:43;;;;;;;11.80;6.30;;;;;;;12.84;61.29;99452.66;107505;1254;60103;-40
2023/10/06 00:57:12;;;;;;;13.10;5.90;;;;;;;12.80;61.43;99451.70;107326;1254;60097;-40
2023/10/06 00:59:41;;;;;;;13.20;6.30;;;;;;;12.77;61.65;99452.84;107335;1253;73905;-40
2023/10/06 01:02:10;;;;;;;10.70;5.90;;;;;;;12.80;61.79;99459.48;107597;1253;67567;-40
2023/10/06 01:04:45;;;;;;;10.00;6.30;;;;;;;12.85;61.71;99459.52;107522;1258;72709;-40
2023/10/06 01:07:13;;;;;;;12.10;6.50;;;;;;;12.86;61.74;99458.14;107500;1254;60446;-40
2023/10/06 01:09:56;;;;;;;11.00;6.30;;;;;;;12.86;61.67;99454.80;107492;1254;60392;-40
2023/10/06 01:12:29;;;;;;;12.20;6.50;;;;;;;12.87;61.81;99451.45;107526;1253;72593;-40
2023/10/06 01:15:05;;;;;;;10.70;5.90;;;;;;;12.86;61.90;99458.45;107538;1252;68245;-40
2023/10/06 01:17:33;;;;;;;9.90;6.20;;;;;;;12.84;61.77;99457.71;107505;1254;72705;-41
2023/10/06 01:20:02;;;;;;;13.00;5.60;;;;;;;12.82;61.89;99461.20;107485;1254;60604;-40
2023/10/06 01:22:33;;;;;;;12.50;5.80;;;;;;;12.77;62.00;99465.48;107377;1254;60482;-40
2023/10/06 01:25:11;;;;;;;13.10;5.70;;;;;;;12.73;62.35;99470.81;107510;1254;72901;-40
2023/10/06 01:27:39;;;;;;;10.20;5.60;;;;;;;12.76;62.31;99471.77;107558;1254;67900;-40
2023/10/06 01:32:43;;;;;;;12.20;5.70;;;;;;;12.74;62.40;99465.38;107470;1254;60528;-40
2023/10/06 01:35:12;;;;;;;10.70;5.90;;;;;;;12.71;62.39;99462.30;107393;1253;60601;-40
2023/10/06 01:37:41;;;;;;;11.40;5.30;;;;;;;12.68;62.56;99463.21;107514;1253;72941;-41
2023/10/06 01:42:52;;;;;;;10.40;5.20;;;;;;;12.61;62.61;99457.92;107469;1254;72683;-41
2023/10/06 01:45:22;;;;;;;11.20;5.70;;;;;;;12.56;62.80;99457.86;107553;1253;60398;-40
2023/10/06 01:48:09;;;;;;;10.50;5.60;;;;;;;12.51;63.02;99456.00;107550;1257;60311;-40
2023/10/06 01:50:39;;;;;;;9.50;5.10;;;;;;;12.52;63.06;99454.09;107486;1253;72583;-40
2023/10/06 01:53:18;;;;;;;8.60;5.40;;;;;;;12.47;63.08;99449.83;107611;1254;66474;-40
2023/10/06 01:55:55;;;;;;;11.70;5.30;;;;;;;12.47;63.33;99462.09;107538;1254;72673;-41
2023/10/06 01:58:23;;;;;;;10.00;5.30;;;;;;;12.40;63.54;99467.69;107487;1254;60348;-40
2023/10/06 02:00:51;;;;;;;11.70;5.80;;;;;;;12.33;63.66;99469.15;107504;1254;60309;-40
2023/10/06 02:03:21;;;;;;;12.10;5.70;;;;;;;12.26;63.95;99476.35;107566;1253;73838;-40
2023/10/06 02:05:59;;;;;;;10.90;6.10;;;;;;;12.18;64.31;99478.09;107628;1254;67611;-40
2023/10/06 02:11:28;;;;;;;10.80;5.90;;;;;;;12.09;64.86;99484.33;104339;1294;601655;-39
2023/10/06 02:13:57;;;;;;;12.80;5.70;;;;;;;12.04;65.10;99485.11;106700;1267;60097;-39
2023/10/06 02:16:26;;;;;;;8.70;5.10;;;;;;;12.00;65.20;99485.60;106706;1266;60005;-39
2023/10/06 02:18:54;;;;;;;13.80;5.80;;;;;;;11.97;65.51;99491.20;106727;1264;72238;-39
2023/10/06 02:21:24;;;;;;;10.40;5.90;;;;;;;11.94;65.70;99494.27;106644;1264;67744;-40
2023/10/06 02:23:52;;;;;;;12.10;5.30;;;;;;;11.99;65.72;99499.63;106507;1269;189051;-39
2023/10/06 02:26:19;;;;;;;9.90;5.50;;;;;;;12.05;65.68;99500.73;106788;1264;60107;-40
2023/10/06 02:28:50;;;;;;;11.00;5.40;;;;;;;12.08;65.50;99499.38;106756;1261;60036;-39
2023/10/06 02:31:21;;;;;;;8.50;4.70;;;;;;;12.11;65.63;99497.16;106869;1260;70968;-39
2023/10/06 02:33:51;;;;;;;12.30;5.40;;;;;;;12.12;65.47;99494.48;106859;1261;67020;-39
2023/10/06 02:36:21;;;;;;;9.60;4.00;;;;;;;12.13;65.39;99493.79;106846;1261;71596;-40
2023/10/06 02:38:50;;;;;;;10.90;4.90;;;;;;;12.13;65.35;99495.41;106911;1264;61678;-39
2023/10/06 02:41:19;;;;;;;10.30;5.50;;;;;;;12.16;65.23;99488.39;106867;1263;60092;-39
2023/10/06 02:43:51;;;;;;;11.50;5.00;;;;;;;12.13;65.16;99475.55;106912;1261;72017;-39
2023/10/06 02:46:25;;;;;;;9.50;4.80;;;;;;;12.16;65.30;99490.88;106921;1267;67674;-39
2023/10/06 02:48:53;;;;;;;9.60;5.20;;;;;;;12.11;65.21;99490.27;106836;1263;72699;-39
2023/10/06 02:51:32;;;;;;;11.70;5.50;;;;;;;12.06;65.24;99488.48;106842;1260;60120;-40
2023/10/06 02:54:13;;;;;;;7.80;4.80;;;;;;;12.01;65.47;99484.13;106930;1261;60033;-39
2023/10/06 02:56:43;;;;;;;8.70;4.70;;;;;;;11.95;65.75;99486.30;106845;1261;71952;-40
2023/10/06 02:59:21;;;;;;;10.20;4.60;;;;;;;11.96;65.67;99487.70;106779;1260;67902;-39
2023/10/06 03:01:57;;;;;;;7.80;4.40;;;;;;;11.97;65.77;99484.45;106847;1264;71475;-40
2023/10/06 03:04:28;;;;;;;8.10;4.30;;;;;;;11.92;65.91;99491.61;106875;1266;60408;-39
2023/10/06 03:06:58;;;;;;;10.40;5.20;;;;;;;11.87;66.05;99492.92;106872;1261;59629;-39
2023/10/06 03:09:48;;;;;;;9.80;4.70;;;;;;;11.84;66.18;99495.12;106884;1261;71819;-40
2023/10/06 03:14:53;;;;;;;10.50;3.90;;;;;;;11.75;66.47;99497.63;106824;1261;70108;-39
2023/10/06 03:17:22;;;;;;;8.30;4.10;;;;;;;11.77;66.60;99496.73;106812;1263;61668;-39
2023/10/06 03:20:28;;;;;;;10.40;4.80;;;;;;;11.79;66.57;99497.94;106792;1260;59282;-39
2023/10/06 03:22:48;;;;;;;8.70;4.40;;;;;;;11.78;66.65;99500.30;106740;1262;73057;-40
2023/10/06 03:25:19;;;;;;;6.90;3.80;;;;;;;11.73;66.75;99500.54;107207;1254;65822;-40
2023/10/06 03:27:53;;;;;;;9.50;4.20;;;;;;;11.71;66.81;99503.52;107318;1256;71233;-39
2023/10/06 03:30:27;;;;;;;11.00;5.00;;;;;;;11.68;66.90;99499.88;107272;1254;60092;-39
2023/10/06 03:32:57;;;;;;;9.10;4.30;;;;;;;11.62;67.23;99499.16;107255;1254;59515;-39
2023/10/06 03:35:35;;;;;;;9.30;4.30;;;;;;;11.63;67.19;99502.13;107265;1254;73134;-39
2023/10/06 03:41:08;;;;;;;;;;;;;;;11.64;67.25;99507.02;107329;1254;71419;-39
2023/10/06 03:43:50;;;;;;;10.20;4.70;;;;;;;11.58;67.42;99504.98;107246;1254;59609;-39
2023/10/06 03:46:19;;;;;;;8.50;4.50;;;;;;;11.51;67.67;99502.32;107146;1254;60040;-39
2023/10/06 03:48:48;;;;;;;8.60;4.30;;;;;;;11.46;67.87;99501.07;107378;1254;73012;-39
2023/10/06 03:51:19;;;;;;;7.80;3.80;;;;;;;11.43;67.94;99501.31;107222;1254;66675;-39
2023/10/06 03:53:48;;;;;;;10.30;4.50;;;;;;;11.45;67.91;99498.19;107237;1256;72698;-39
2023/10/06 03:56:16;;;;;;;8.80;4.30;;;;;;;11.47;68.12;99499.45;107236;1254;60059;-39
2023/10/06 03:58:44;;;;;;;8.40;4.20;;;;;;;11.42;68.21;99497.51;107249;1254;60215;-39
2023/10/06 04:01:16;;;;;;;9.20;4.50;;;;;;;11.38;68.29;99500.52;107251;1254;73062;-39
2023/10/06 04:03:44;;;;;;;7.90;4.10;;;;;;;11.34;68.36;99506.50;107222;1254;67565;-39
2023/10/06 04:06:15;;;;;;;7.20;4.00;;;;;;;11.31;68.52;99513.77;107229;1254;72725;-39
2023/10/06 04:08:46;;;;;;;10.00;3.90;;;;;;;11.35;68.54;99511.64;107197;1257;61692;-39
2023/10/06 04:11:14;;;;;;;10.70;4.10;;;;;;;11.39;68.35;99509.53;107348;1254;60034;-39
2023/10/06 04:13:43;;;;;;;6.70;4.00;;;;;;;11.38;68.47;99515.02;107367;1258;72838;-39
2023/10/06 04:16:14;;;;;;;10.90;4.90;;;;;;;11.36;68.50;99511.19;107297;1254;68072;-39
2023/10/06 04:18:47;;;;;;;6.40;3.80;;;;;;;11.33;68.53;99522.55;107352;1254;72667;-39
2023/10/06 04:21:16;;;;;;;7.90;3.70;;;;;;;11.29;68.62;99528.98;107295;1257;60065;-39
2023/10/06 04:23:43;;;;;;;6.70;3.40;;;;;;;11.25;68.81;99531.39;107327;1254;59500;-39
2023/10/06 04:26:14;;;;;;;6.50;3.10;;;;;;;11.29;68.78;99534.71;107284;1254;73035;-39
2023/10/06 04:28:45;;;;;;;6.40;3.50;;;;;;;11.32;68.65;99538.28;107242;1254;67876;-39
2023/10/06 04:31:15;;;;;;;8.20;4.10;;;;;;;11.30;68.81;99541.34;107241;1254;72669;-38
2023/10/06 04:33:44;;;;;;;7.10;3.50;;;;;;;11.28;68.71;99546.02;107324;1257;60449;-39
2023/10/06 04:36:12;;;;;;;9.10;3.90;;;;;;;11.25;68.74;99543.85;107284;1254;59548;-39
2023/10/06 04:38:40;;;;;;;6.90;2.60;;;;;;;11.21;68.92;99547.60;107256;1254;73035;-39
2023/10/06 04:41:09;;;;;;;7.50;3.30;;;;;;;11.20;68.85;99549.51;107338;1254;67615;-40
2023/10/06 04:43:47;;;;;;;7.40;3.70;;;;;;;11.25;68.68;99551.16;107221;1260;72681;-40
2023/10/06 04:46:14;;;;;;;7.60;3.80;;;;;;;11.27;68.77;99554.54;107284;1256;59688;-40
2023/10/06 04:48:42;;;;;;;6.00;3.00;;;;;;;11.25;68.91;99553.02;107349;1253;60054;-39
2023/10/06 04:51:10;;;;;;;7.00;3.50;;;;;;;11.26;68.96;99559.56;107343;1254;71766;-40
2023/10/06 04:53:38;;;;;;;6.20;3.40;;;;;;;11.26;68.95;99560.41;107293;1253;67613;-40
2023/10/06 04:56:07;;;;;;;9.20;3.10;;;;;;;11.29;68.93;99564.97;107495;1254;72709;-40
2023/10/06 04:58:36;;;;;;;8.50;3.60;;;;;;;11.38;68.84;99564.73;107385;1253;61575;-39
2023/10/06 05:01:04;;;;;;;9.20;3.80;;;;;;;11.47;68.59;99566.62;107388;1253;59305;-39
2023/10/06 05:03:42;;;;;;;8.80;3.40;;;;;;;11.51;68.38;99572.82;107330;1253;73470;-39
2023/10/06 05:06:15;;;;;;;6.80;3.40;;;;;;;11.51;68.29;99574.38;107355;1256;67773;-39
2023/10/06 05:08:47;;;;;;;6.00;3.20;;;;;;;11.51;68.37;99575.62;107373;1254;72641;-39
2023/10/06 05:11:17;;;;;;;7.00;3.70;;;;;;;11.50;68.15;99579.48;107464;1259;60156;-39
2023/10/06 05:13:52;;;;;;;7.20;3.50;;;;;;;11.46;68.26;99581.27;107355;1254;59592;-39
2023/10/06 05:16:22;;;;;;;7.10;3.30;;;;;;;11.51;68.34;99583.21;107299;1254;73031;-39
2023/10/06 05:18:51;;;;;;;7.40;3.30;;;;;;;11.55;67.98;99587.48;107337;1256;68539;-39
2023/10/06 05:21:20;;;;;;;8.00;3.60;;;;;;;11.54;68.10;99585.77;107438;1259;71700;-39
2023/10/06 05:23:48;;;;;;;6.90;3.20;;;;;;;11.53;68.37;99590.02;107317;1256;60090;-39
2023/10/06 05:26:18;;;;;;;7.70;3.50;;;;;;;11.54;68.41;99591.64;107322;1258;59615;-40
2023/10/06 05:28:47;;;;;;;7.50;3.10;;;;;;;11.54;68.65;99596.70;107343;1255;72815;-40
2023/10/06 05:31:15;;;;;;;8.70;3.50;;;;;;;11.57;68.57;99603.04;107299;1255;67659;-40
2023/10/06 05:33:42;;;;;;;7.10;3.20;;;;;;;11.68;68.57;99606.89;107395;1254;71485;-40
2023/10/06 05:36:13;;;;;;;7.70;2.90;;;;;;;11.76;68.42;99610.48;107402;1256;60108;-40
2023/10/06 05:38:47;;;;;;;7.90;3.50;;;;;;;11.81;68.25;99602.48;107336;1254;60009;-40
2023/10/06 05:41:15;;;;;;;7.90;3.40;;;;;;;11.86;68.45;99603.12;107308;1254;73054;-40
2023/10/06 05:43:43;;;;;;;6.00;3.30;;;;;;;11.91;68.06;99609.49;107367;1254;68015;-40
2023/10/06 05:46:11;;;;;;;8.20;3.20;;;;;;;11.93;67.61;99606.65;107480;1256;72907;-40
2023/10/06 05:48:39;;;;;;;6.00;3.10;;;;;;;11.94;67.56;99610.86;107305;1259;61715;-40
2023/10/06 05:51:14;;;;;;;8.40;3.70;;;;;;;12.00;67.30;99614.95;107363;1254;60036;-40
2023/10/06 05:53:43;;;;;;;7.00;3.10;;;;;;;12.06;66.77;99620.15;107362;1254;73526;-40
2023/10/06 05:56:12;;;;;;;10.20;3.20;;;;;;;12.05;66.67;99621.84;107319;1254;67567;-40
2023/10/06 05:58:40;;;;;;;7.50;3.00;;;;;;;12.04;66.89;99631.92;107308;1259;72664;-39
2023/10/06 06:01:18;;;;;;;5.60;3.20;;;;;;;12.04;66.80;99635.42;107329;1256;60047;-40
2023/10/06 06:03:47;;;;;;;5.30;2.80;;;;;;;12.04;66.96;99643.90;107350;1254;60010;-40
2023/10/06 06:06:16;;;;;;;8.40;2.90;;;;;;;12.06;66.72;99643.98;107470;1254;73477;-40
2023/10/06 06:08:47;;;;;;;9.10;3.10;;;;;;;12.14;66.43;99646.69;107336;1254;67651;-40
2023/10/06 06:11:16;;;;;;;7.90;3.30;;;;;;;12.20;66.06;99647.27;107379;1254;72667;-40
2023/10/06 06:13:44;;;;;;;8.50;3.10;;;;;;;12.21;65.01;99640.83;107343;1256;60090;-40
2023/10/06 06:16:22;;;;;;;7.00;3.00;;;;;;;12.18;64.37;99647.38;107463;1254;59553;-40
2023/10/06 06:18:50;;;;;;;4.70;3.00;;;;;;;12.13;64.30;99648.08;107545;1254;73050;-40
2023/10/06 06:21:24;;;;;;;6.00;2.90;;;;;;;12.09;64.58;99650.81;107337;1254;66452;-40
2023/10/06 06:23:56;;;;;;;4.90;2.50;;;;;;;12.06;64.36;99654.40;107330;1254;72740;-40
2023/10/06 06:26:25;;;;;;;5.20;2.60;;;;;;;12.11;64.26;99657.05;107271;1256;61672;-40
2023/10/06 06:28:53;;;;;;;7.50;3.00;;;;;;;12.16;64.26;99655.90;107313;1254;60061;-40
2023/10/06 06:31:21;;;;;;;4.40;2.30;;;;;;;12.20;64.13;99655.27;107306;1254;73907;-40
2023/10/06 06:33:55;;;;;;;4.40;2.70;;;;;;;12.30;64.13;99662.71;107356;1254;67886;-40
2023/10/06 06:36:26;;;;;;;4.60;2.30;;;;;;;12.37;62.90;99663.00;107323;1259;72676;-40
2023/10/06 06:38:54;;;;;;;7.20;2.50;;;;;;;12.39;62.54;99667.38;107358;1259;60489;-40
2023/10/06 06:41:22;;;;;;;6.10;2.60;;;;;;;12.40;62.51;99672.30;107401;1254;60421;-40
2023/10/06 06:43:54;;;;;;;5.20;2.50;;;;;;;12.39;62.46;99672.83;107340;1259;73845;-40
2023/10/06 06:46:22;;;;;;;8.10;2.50;;;;;;;12.37;62.21;99676.59;107292;1254;66339;-40
2023/10/06 06:48:49;;;;;;;6.70;2.80;;;;;;;12.41;62.09;99678.84;107253;1254;71406;-40
2023/10/06 06:51:18;;;;;;;5.10;2.40;;;;;;;12.44;61.65;99682.23;107290;1256;60846;-40
2023/10/06 06:53:47;;;;;;;5.50;2.40;;;;;;;12.42;61.26;99679.10;107294;1254;60382;-40
2023/10/06 06:56:17;;;;;;;7.70;2.10;;;;;;;12.36;61.10;99674.03;107304;1259;72678;-40
2023/10/06 06:58:46;;;;;;;5.10;1.80;;;;;;;12.43;60.69;99683.55;107384;1254;67589;-40
2023/10/06 07:01:16;;;;;;;6.60;2.30;;;;;;;12.44;60.53;99682.54;107285;1256;72648;-40
2023/10/06 07:03:44;;;;;;;4.60;2.10;;;;;;;12.47;60.58;99680.64;107292;1256;60549;-40
2023/10/06 07:06:16;;;;;;;5.60;2.10;;;;;;;12.51;60.48;99682.67;107337;1254;60053;-40
2023/10/06 07:08:45;;;;;;;2.80;1.70;;;;;;;12.58;59.34;99687.27;107332;1254;73874;-40
2023/10/06 07:11:13;;;;;;;4.30;2.10;;;;;;;12.61;58.28;99692.00;107414;1259;66317;-40
2023/10/06 07:13:42;;;;;;;5.40;2.00;;;;;;;12.63;58.71;99689.30;107428;1254;72647;-40
2023/10/06 07:16:10;;;;;;;3.60;2.00;;;;;;;12.67;59.01;99692.00;107362;1256;60325;-39
2023/10/06 07:18:37;;;;;;;3.00;1.80;;;;;;;12.72;58.83;99691.99;107275;1256;60378;-40
2023/10/06 07:21:09;;;;;;;4.70;1.80;;;;;;;12.76;58.75;99696.79;107398;1254;73879;-40
2023/10/06 07:23:40;;;;;;;5.00;1.60;;;;;;;12.79;57.08;99705.47;107295;1254;66158;-40
2023/10/06 07:26:11;;;;;;;7.10;1.90;;;;;;;12.81;57.03;99698.98;107264;1256;71926;-40
2023/10/06 07:28:39;;;;;;;4.30;1.60;;;;;;;12.85;56.65;99704.40;107286;1254;60334;-40
2023/10/06 07:31:12;;;;;;;5.50;1.80;;;;;;;12.90;56.60;99706.81;107369;1254;60361;-39
2023/10/06 07:33:43;;;;;;;4.40;1.90;;;;;;;12.98;57.20;99708.56;107281;1254;73907;-40
2023/10/06 07:36:13;;;;;;;4.00;1.70;;;;;;;13.05;56.67;99714.59;107293;1259;66638;-40
2023/10/06 07:38:41;;;;;;;4.60;1.90;;;;;;;13.08;56.48;99712.67;107353;1254;72741;-39
2023/10/06 07:41:16;;;;;;;5.60;2.00;;;;;;;13.07;56.37;99720.51;107286;1254;60313;-40
2023/10/06 07:43:48;;;;;;;4.10;1.60;;;;;;;13.07;56.86;99721.83;107303;1257;60438;-40
2023/10/06 07:46:16;;;;;;;4.00;1.70;;;;;;;13.07;56.70;99719.34;107383;1254;73915;-40
2023/10/06 07:48:45;;;;;;;3.20;1.60;;;;;;;13.07;56.32;99719.58;107293;1254;67590;-40
2023/10/06 07:51:13;;;;;;;4.50;1.60;;;;;;;13.04;55.42;99725.98;107278;1256;72812;-40
2023/10/06 07:53:42;;;;;;;2.80;1.70;;;;;;;13.00;55.03;99722.36;107370;1256;60443;-40
2023/10/06 07:56:11;;;;;;;2.90;1.80;;;;;;;12.95;55.57;99721.98;107473;1256;60314;-40
2023/10/06 07:58:43;;;;;;;4.20;1.80;;;;;;;12.94;55.59;99723.89;107413;1259;73812;-40
2023/10/06 08:01:12;;;;;;;4.60;1.90;;;;;;;12.95;55.59;99726.56;107405;1256;67560;-40
2023/10/06 08:03:41;;;;;;;3.50;1.70;;;;;;;13.02;54.78;99723.09;107450;1259;72695;-39
2023/10/06 08:06:13;;;;;;;3.30;1.60;;;;;;;13.12;55.34;99722.85;107498;1256;60323;-40
2023/10/06 08:08:42;;;;;;;4.20;1.80;;;;;;;13.23;55.12;99718.66;107459;1256;60473;-39
2023/10/06 08:11:09;;;;;;;6.10;2.00;;;;;;;13.30;55.19;99723.75;107408;1256;72637;-40
2023/10/06 08:13:38;;;;;;;7.00;1.80;;;;;;;13.35;55.12;99728.80;107442;1256;67866;-41
2023/10/06 08:16:06;;;;;;;4.60;1.70;;;;;;;13.37;52.93;99724.14;107383;1257;72758;-40
2023/10/06 08:18:34;;;;;;;3.30;1.60;;;;;;;13.37;51.67;99723.60;107390;1255;60427;-40
2023/10/06 08:21:03;;;;;;;4.30;1.50;;;;;;;13.40;52.01;99719.91;107404;1256;60440;-40
2023/10/06 08:23:35;;;;;;;4.70;1.80;;;;;;;13.48;51.54;99726.71;107407;1256;73881;-41
2023/10/06 08:26:08;;;;;;;3.30;1.50;;;;;;;13.61;50.91;99733.41;107385;1256;67674;-41
2023/10/06 08:28:36;;;;;;;3.10;1.70;;;;;;;13.70;50.90;99729.08;107258;1256;72739;-40
2023/10/06 08:31:04;;;;;;;6.90;1.60;;;;;;;13.75;51.12;99731.80;107228;1256;60502;-40
2023/10/06 08:33:32;;;;;;;4.30;1.80;;;;;;;13.80;50.60;99731.61;107263;1256;60427;-39
2023/10/06 08:36:01;;;;;;;3.10;1.60;;;;;;;13.83;50.34;99735.39;107290;1256;73845;-40
2023/10/06 08:38:32;;;;;;;4.70;1.40;;;;;;;13.88;51.18;99738.10;107430;1259;67560;-40
2023/10/06 08:41:03;;;;;;;7.10;1.50;;;;;;;13.96;50.98;99740.76;107386;1256;72686;-40
2023/10/06 08:43:32;;;;;;;4.60;1.40;;;;;;;14.00;49.98;99748.18;107397;1255;60348;-40
2023/10/06 08:46:00;;;;;;;4.40;1.40;;;;;;;13.99;49.49;99743.67;107278;1257;60511;-40
2023/10/06 08:48:31;;;;;;;4.70;1.40;;;;;;;14.00;48.81;99750.92;107241;1258;73876;-40
2023/10/06 08:51:03;;;;;;;2.30;1.20;;;;;;;14.03;48.47;99743.80;107289;1256;65898;-40
2023/10/06 08:53:31;;;;;;;5.70;1.70;;;;;;;14.07;48.41;99739.80;107425;1256;71378;-39
2023/10/06 08:55:59;;;;;;;4.50;1.30;;;;;;;14.14;48.48;99736.52;107449;1256;59640;-40
2023/10/06 08:58:27;;;;;;;4.90;1.20;;;;;;;14.24;48.09;99747.67;107271;1256;60398;-40
2023/10/06 09:00:55;;;;;;;3.00;1.20;;;;;;;14.31;48.06;99752.65;107441;1256;74503;-40
2023/10/06 09:03:23;;;;;;;4.80;1.20;;;;;;;14.39;48.41;99750.43;107403;1256;67768;-40
2023/10/06 09:05:54;;;;;;;6.50;1.60;;;;;;;14.51;48.38;99754.59;107409;1256;71708;-40
2023/10/06 09:08:23;;;;;;;4.20;1.90;;;;;;;14.64;48.06;99760.33;107224;1256;60326;-40
2023/10/06 09:10:51;;;;;;;3.00;1.30;;;;;;;14.74;48.18;99755.58;107385;1255;60572;-40
2023/10/06 09:13:20;;;;;;;5.90;1.20;;;;;;;14.84;48.00;99754.96;107373;1259;75296;-40
2023/10/06 09:16:09;;;;;;;4.30;1.90;;;;;;;14.93;47.60;99759.16;107334;1260;67767;-40
2023/10/06 09:18:40;;;;;;;3.90;1.50;;;;;;;15.03;46.84;99764.55;107370;1258;72693;-40
2023/10/06 09:21:19;;;;;;;4.00;1.50;;;;;;;15.05;45.59;99766.91;107409;1255;60370;-40
2023/10/06 09:23:49;;;;;;;4.60;1.50;;;;;;;15.04;45.61;99768.08;107417;1256;60364;-40
2023/10/06 09:26:28;;;;;;;;;;;;;;;15.08;45.30;99773.55;107229;1255;73993;-40
2023/10/06 09:28:59;;;;;;;8.50;1.80;;;;;;;15.14;44.81;99774.46;107258;1255;67781;-40
2023/10/06 09:31:37;;;;;;;5.60;1.40;;;;;;;15.20;44.17;99766.55;107234;1260;72745;-40
2023/10/06 09:34:08;;;;;;;4.90;1.60;;;;;;;15.27;43.52;99775.86;107285;1256;60597;-40
2023/10/06 09:36:42;;;;;;;5.60;1.30;;;;;;;15.33;43.20;99768.80;107417;1256;60435;-40
2023/10/06 09:39:19;;;;;;;7.10;1.50;;;;;;;15.41;42.99;99771.42;107390;1257;73265;-40
2023/10/06 09:41:48;;;;;;;4.70;1.80;;;;;;;15.46;43.46;99769.83;107415;1256;66498;-40
2023/10/06 09:44:18;;;;;;;6.30;1.60;;;;;;;15.54;42.83;99779.56;107222;1260;72820;-40
2023/10/06 09:46:45;;;;;;;2.60;1.30;;;;;;;15.62;42.60;99776.17;107258;1256;60544;-40
2023/10/06 09:49:18;;;;;;;2.60;1.20;;;;;;;15.65;42.53;99776.36;107419;1256;60492;-40
2023/10/06 09:51:46;;;;;;;4.60;1.40;;;;;;;15.69;42.99;99768.80;107394;1256;74631;-40
2023/10/06 09:54:14;;;;;;;3.60;1.60;;;;;;;15.79;42.56;99773.29;107386;1256;67648;-40
2023/10/06 09:56:42;;;;;;;5.40;1.50;;;;;;;15.91;41.81;99769.67;107276;1256;73462;-40
2023/10/06 09:59:13;;;;;;;8.40;1.30;;;;;;;15.97;41.63;99769.63;107374;1257;60068;-40
2023/10/06 10:01:47;;;;;;;3.50;1.20;;;;;;;16.04;41.15;99768.48;107309;1256;60020;-40
2023/10/06 10:04:15;;;;;;;4.30;1.70;;;;;;;16.09;40.13;99776.21;107251;1257;76167;-40
2023/10/06 10:06:43;;;;;;;4.50;1.50;;;;;;;16.08;39.79;99767.94;107253;1257;68316;-40
2023/10/06 10:09:16;;;;;;;5.00;1.60;;;;;;;16.08;39.96;99771.20;107396;1257;74879;-41
2023/10/06 10:12:07;;;;;;;6.40;1.30;;;;;;;16.12;39.84;99775.77;107329;1254;60336;-40
2023/10/06 10:14:49;;;;;;;4.00;1.30;;;;;;;16.18;39.05;99772.27;107488;1254;60349;-40
2023/10/06 10:17:43;;;;;;;5.10;1.50;;;;;;;16.20;39.48;99776.02;107482;1254;72611;-40
2023/10/06 10:20:12;;;;;;;7.50;1.20;;;;;;;16.19;39.94;99781.48;107441;1254;67562;-40
2023/10/06 10:22:41;;;;;;;6.80;1.50;;;;;;;16.20;39.70;99780.95;107467;1259;71775;-40
2023/10/06 10:25:13;;;;;;;4.10;1.50;;;;;;;16.16;39.09;99780.23;107409;1254;59668;-40
2023/10/06 10:28:27;;;;;;;3.50;1.40;;;;;;;16.10;39.94;99775.14;107412;1254;62235;-40
2023/10/06 10:31:02;;;;;;;3.70;1.50;;;;;;;16.19;40.03;99775.01;107244;1254;73862;-40
2023/10/06 10:33:34;;;;;;;2.10;1.20;;;;;;;16.27;39.56;99775.11;107431;1254;66846;-40
2023/10/06 10:36:20;;;;;;;5.50;1.40;;;;;;;16.35;38.90;99779.18;107462;1257;72748;-40
2023/10/06 10:39:02;;;;;;;4.20;1.20;;;;;;;16.45;39.00;99776.23;107447;1255;60355;-40
2023/10/06 10:41:34;;;;;;;4.90;1.70;;;;;;;16.54;38.15;99774.30;107356;1255;60493;-40
2023/10/06 10:44:07;;;;;;;4.00;1.20;;;;;;;16.57;37.96;99771.40;107316;1254;76111;-40
2023/10/06 10:46:53;;;;;;;4.30;1.60;;;;;;;16.61;38.11;99766.20;107210;1254;68079;-40
2023/10/06 10:49:22;;;;;;;6.00;1.20;;;;;;;16.68;37.98;99768.32;107428;1257;72712;-41
2023/10/06 10:51:54;;;;;;;2.50;1.30;;;;;;;16.72;37.88;99770.04;107442;1257;60096;-41
2023/10/06 10:54:22;;;;;;;10.60;1.70;;;;;;;16.82;37.95;99774.97;107444;1254;60421;-40
2023/10/06 10:56:51;;;;;;;7.00;1.50;;;;;;;16.92;37.94;99772.94;107459;1254;74193;-40
2023/10/06 10:59:20;;;;;;;1.80;1.10;;;;;;;17.00;37.17;99773.86;107292;1254;68432;-40
2023/10/06 11:01:51;;;;;;;3.70;1.30;;;;;;;17.01;37.09;99778.56;107302;1256;74686;-41
2023/10/06 11:04:35;;;;;;;3.50;1.20;;;;;;;17.04;36.71;99779.98;107388;1257;60572;-41
2023/10/06 11:07:11;;;;;;;11.00;1.50;;;;;;;17.14;36.33;99779.82;107490;1254;60331;-40
2023/10/06 11:09:47;;;;;;;5.70;1.20;;;;;;;17.25;36.26;99775.42;107411;1254;74229;-41
2023/10/06 11:12:24;;;;;;;3.60;1.10;;;;;;;17.31;36.34;99773.45;107276;1256;67162;-40
2023/10/06 11:14:53;;;;;;;5.00;1.40;;;;;;;17.39;36.40;99775.15;107434;1254;71503;-40
2023/10/06 11:17:22;;;;;;;3.40;1.30;;;;;;;17.49;35.75;99774.11;107463;1254;60326;-40
2023/10/06 11:20:01;;;;;;;7.00;1.70;;;;;;;17.51;35.48;99775.53;107443;1257;60414;-40
2023/10/06 11:22:33;;;;;;;3.60;1.10;;;;;;;17.49;35.62;99770.66;107394;1255;75997;-40
2023/10/06 11:25:06;;;;;;;4.40;1.20;;;;;;;17.55;35.58;99771.98;107368;1254;69023;-41
2023/10/06 11:27:34;;;;;;;4.00;1.30;;;;;;;17.67;35.64;99774.88;107424;1256;71783;-41
2023/10/06 11:30:07;;;;;;;8.10;1.50;;;;;;;17.83;34.49;99760.87;107348;1257;62137;-40
2023/10/06 11:32:35;;;;;;;6.40;1.50;;;;;;;17.95;34.13;99764.27;107412;1254;60520;-41
2023/10/06 11:35:04;;;;;;;8.10;1.60;;;;;;;17.97;33.33;99767.31;107336;1254;72636;-40
2023/10/06 11:37:33;;;;;;;3.00;1.30;;;;;;;17.93;33.57;99776.34;107359;1254;68957;-40
2023/10/06 11:40:01;;;;;;;6.80;1.20;;;;;;;17.98;33.41;99767.08;107403;1257;72746;-41
2023/10/06 11:42:30;;;;;;;9.20;1.60;;;;;;;18.03;33.58;99770.11;107344;1258;60447;-41
2023/10/06 11:44:59;;;;;;;3.40;1.10;;;;;;;18.09;34.08;99765.84;107407;1255;60991;-40
2023/10/06 11:47:27;;;;;;;8.00;1.30;;;;;;;18.21;33.63;99765.77;107357;1254;72596;-41
2023/10/06 11:49:58;;;;;;;5.20;1.30;;;;;;;18.33;33.82;99763.90;107378;1254;67604;-41
2023/10/06 11:52:29;;;;;;;6.20;1.40;;;;;;;18.59;33.88;99764.15;107432;1257;73053;-41
2023/10/06 11:54:58;;;;;;;2.20;1.10;;;;;;;18.93;33.07;99763.73;107336;1257;61003;-41
2023/10/06 11:57:45;;;;;;;2.80;1.20;;;;;;;19.24;31.65;99763.91;107505;1255;60394;-41
2023/10/06 12:00:17;;;;;;;3.20;1.10;;;;;;;19.51;30.82;99770.73;107429;1255;73846;-41
2023/10/06 12:02:53;;;;;;;3.80;1.40;;;;;;;19.66;30.78;99775.13;107400;1255;68218;-41